Time;durP1;ratioP1;P1;durP2;ratioP2;P2;SDS_P1;SDS_P2;PMS_P1;PMS_P2;Temp;Humidity;BMP_temperature;BMP_pressure;BME280_temperature;BME280_humidity;BME280_pressure;Samples;Min_cycle;Max_cycle;Signal;HPM_P1;HPM_P2
2023/01/03 05:30:29;;;;;;;7.93;2.08;;;7.90;85.00;;;;;;5908882;23;20090;-78
2023/01/03 05:32:55;;;;;;;6.38;2.00;;;7.80;85.00;;;;;;4959937;28;20035;-77
2023/01/03 05:35:21;;;;;;;7.63;2.00;;;7.70;85.30;;;;;;4958086;29;20081;-76
2023/01/03 05:37:46;;;;;;;11.15;2.28;;;7.80;85.10;;;;;;4959852;29;20027;-76
2023/01/03 05:40:12;;;;;;;5.43;2.30;;;7.80;85.20;;;;;;4960406;28;20023;-77
2023/01/03 05:42:38;;;;;;;10.80;2.00;;;7.80;85.20;;;;;;4959951;29;20027;-77
2023/01/03 05:45:07;;;;;;;6.45;1.98;;;7.80;85.20;;;;;;4958847;29;20930;-77
2023/01/03 05:47:32;;;;;;;3.70;1.63;;;7.90;85.00;;;;;;4973519;28;20023;-76
2023/01/03 05:49:58;;;;;;;6.65;2.42;;;7.90;84.70;;;;;;4979124;28;20503;-74
2023/01/03 05:52:23;;;;;;;3.40;1.80;;;7.80;84.60;;;;;;4976678;28;20031;-75
2023/01/03 05:54:49;;;;;;;6.90;1.75;;;7.80;84.60;;;;;;4978462;28;20061;-76
2023/01/03 05:57:15;;;;;;;11.32;1.95;;;7.90;84.80;;;;;;4996509;28;20037;-74
2023/01/03 05:59:40;;;;;;;4.90;2.30;;;7.80;84.60;;;;;;4978765;28;20037;-76
2023/01/03 06:02:06;;;;;;;6.20;1.98;;;7.90;84.60;;;;;;4978576;28;20038;-76
2023/01/03 06:04:31;;;;;;;6.22;1.65;;;7.90;84.50;;;;;;4989334;28;20030;-76
2023/01/03 06:06:57;;;;;;;5.25;2.03;;;7.80;84.40;;;;;;4985765;28;20141;-76
2023/01/03 06:09:23;;;;;;;5.43;1.83;;;7.80;84.60;;;;;;4984894;28;20050;-75
2023/01/03 06:11:48;;;;;;;4.97;1.85;;;7.90;84.70;;;;;;4990206;28;20108;-75
2023/01/03 06:14:14;;;;;;;7.57;2.17;;;7.80;84.50;;;;;;4998219;28;20153;-75
2023/01/03 06:19:24;;;;;;;5.65;2.38;;;7.80;84.70;;;;;;4967747;28;20467;-75
2023/01/03 06:21:49;;;;;;;1.98;1.40;;;7.90;84.70;;;;;;4985876;28;20019;-76
2023/01/03 06:24:15;;;;;;;7.47;2.20;;;7.90;84.50;;;;;;4982334;28;20033;-76
2023/01/03 06:26:41;;;;;;;9.77;2.35;;;7.90;84.60;;;;;;4954278;28;20035;-77
2023/01/03 06:29:06;;;;;;;7.35;2.00;;;7.90;84.70;;;;;;4976623;28;20027;-77
2023/01/03 06:31:32;;;;;;;4.65;2.00;;;7.80;84.80;;;;;;4976449;28;20059;-78
2023/01/03 06:33:58;;;;;;;10.85;3.03;;;7.90;84.70;;;;;;4976003;28;20035;-77
2023/01/03 06:36:32;;;;;;;5.15;1.98;;;7.80;85.10;;;;;;4963777;28;20396;-77
2023/01/03 06:38:58;;;;;;;7.88;2.08;;;7.80;84.90;;;;;;4997736;28;20105;-77
2023/01/03 06:41:24;;;;;;;2.90;1.83;;;7.80;85.00;;;;;;4976955;28;20097;-77
2023/01/03 06:43:50;;;;;;;5.80;1.88;;;7.90;85.00;;;;;;4960703;28;20158;-77
2023/01/03 06:54:34;;;;;;;9.43;1.85;;;7.80;85.20;;;;;;4977253;28;20037;-77
2023/01/03 06:57:00;;;;;;;7.65;2.13;;;7.90;85.30;;;;;;4959398;28;20106;-77
2023/01/03 06:59:25;;;;;;;5.60;1.80;;;7.90;85.20;;;;;;4957524;29;20027;-77
2023/01/03 07:01:52;;;;;;;6.10;1.75;;;7.90;85.30;;;;;;4969743;28;20026;-78
2023/01/03 07:04:19;;;;;;;4.68;2.17;;;7.80;85.50;;;;;;4977720;28;20072;-78
2023/01/03 07:06:45;;;;;;;8.35;1.85;;;7.90;85.30;;;;;;4977797;28;20452;-77
2023/01/03 07:09:12;;;;;;;7.88;1.75;;;7.80;85.50;;;;;;4960318;28;20031;-78
2023/01/03 07:11:39;;;;;;;6.45;1.88;;;7.80;85.60;;;;;;4990176;28;20392;-78
2023/01/03 07:14:06;;;;;;;6.65;2.33;;;7.90;85.60;;;;;;4960987;28;20441;-78
2023/01/03 07:16:41;;;;;;;8.75;2.25;;;7.90;85.60;;;;;;4941044;29;20063;-77
2023/01/03 07:19:09;;;;;;;7.70;2.33;;;7.90;85.50;;;;;;4956915;29;20027;-78
2023/01/03 07:21:35;;;;;;;8.25;1.77;;;7.90;85.60;;;;;;4976059;28;20031;-77
2023/01/03 07:24:02;;;;;;;8.77;2.15;;;7.90;85.60;;;;;;4977583;28;20029;-77
2023/01/03 07:26:30;;;;;;;5.85;2.25;;;7.80;85.70;;;;;;4977677;28;20023;-77
2023/01/03 07:28:57;;;;;;;5.53;1.77;;;7.90;85.90;;;;;;4963298;28;20085;-77
2023/01/03 07:31:22;;;;;;;3.70;2.15;;;7.80;85.80;;;;;;4964790;28;20065;-78
2023/01/03 07:33:48;;;;;;;9.15;2.22;;;7.80;86.00;;;;;;4977418;28;20031;-78
2023/01/03 07:36:15;;;;;;;10.30;2.72;;;7.80;86.00;;;;;;4976957;28;20031;-79
2023/01/03 07:38:44;;;;;;;7.85;2.10;;;7.80;86.20;;;;;;4959792;28;20379;-78
2023/01/03 07:41:10;;;;;;;5.65;2.10;;;7.90;86.20;;;;;;4975901;28;20026;-78
2023/01/03 07:43:38;;;;;;;8.93;2.22;;;7.90;86.10;;;;;;4960012;28;20058;-77
2023/01/03 07:46:16;;;;;;;13.77;2.08;;;7.90;86.10;;;;;;4966083;28;20082;-77
2023/01/03 07:48:43;;;;;;;9.18;2.58;;;7.90;86.00;;;;;;4958133;29;20523;-77
2023/01/03 07:51:11;;;;;;;5.07;2.05;;;8.00;86.00;;;;;;4962968;28;20044;-77
2023/01/03 07:53:37;;;;;;;4.68;1.83;;;8.00;86.10;;;;;;4961391;28;20121;-77
2023/01/03 07:56:10;;;;;;;5.13;1.95;;;7.90;86.00;;;;;;4979238;28;20037;-77
2023/01/03 07:58:36;;;;;;;6.35;1.60;;;7.90;86.00;;;;;;4996345;28;20030;-78
2023/01/03 08:01:17;;;;;;;7.57;1.80;;;8.00;86.20;;;;;;4963136;28;20089;-78
2023/01/03 08:03:43;;;;;;;4.32;1.88;;;8.00;86.10;;;;;;4977018;28;20085;-77
2023/01/03 08:06:14;;;;;;;6.97;1.90;;;8.00;86.30;;;;;;4959581;28;20667;-77
2023/01/03 08:08:41;;;;;;;6.50;2.00;;;8.00;86.10;;;;;;4976350;28;20035;-77
2023/01/03 08:13:57;;;;;;;4.68;1.88;;;8.10;86.20;;;;;;4996481;28;20041;-77
2023/01/03 08:16:23;;;;;;;8.43;2.47;;;8.10;86.10;;;;;;4962183;28;20465;-78
2023/01/03 08:18:49;;;;;;;5.53;1.95;;;8.20;86.30;;;;;;4967987;28;20114;-77
2023/01/03 08:21:15;;;;;;;5.28;2.05;;;8.20;86.00;;;;;;4965089;28;20379;-77
2023/01/03 08:23:42;;;;;;;13.40;2.42;;;8.30;85.90;;;;;;4972550;28;20062;-77
2023/01/03 08:26:13;;;;;;;6.80;2.20;;;8.30;85.70;;;;;;4975936;28;20060;-78
2023/01/03 08:28:40;;;;;;;4.82;1.50;;;8.30;85.80;;;;;;4976883;28;20072;-78
2023/01/03 08:31:13;;;;;;;3.22;1.63;;;8.30;85.70;;;;;;4975548;28;20133;-78
2023/01/03 08:33:45;;;;;;;8.60;2.72;;;8.30;85.90;;;;;;4959106;28;20509;-77
2023/01/03 08:36:12;;;;;;;3.90;1.88;;;8.40;86.20;;;;;;4959357;28;20045;-78
2023/01/03 08:38:53;;;;;;;3.63;1.75;;;8.50;86.10;;;;;;4976107;28;20027;-77
2023/01/03 08:41:25;;;;;;;11.63;2.05;;;8.60;86.00;;;;;;4976600;28;20054;-78
2023/01/03 08:43:51;;;;;;;4.10;1.90;;;8.60;86.00;;;;;;4976561;28;20023;-77
2023/01/03 08:46:18;;;;;;;6.68;1.65;;;8.70;86.20;;;;;;4976421;28;20029;-78
2023/01/03 08:48:44;;;;;;;12.32;1.73;;;8.70;86.20;;;;;;4976112;28;20058;-77
2023/01/03 08:51:09;;;;;;;4.15;1.50;;;8.80;86.10;;;;;;4976643;28;20027;-77
2023/01/03 08:53:35;;;;;;;7.32;1.80;;;8.80;86.10;;;;;;4980902;28;20041;-77
2023/01/03 08:56:01;;;;;;;4.03;1.38;;;9.00;86.10;;;;;;4982244;28;20067;-77
2023/01/03 08:58:27;;;;;;;4.00;1.52;;;9.10;85.90;;;;;;4999974;28;20061;-78
2023/01/03 09:00:52;;;;;;;9.90;2.03;;;9.20;85.80;;;;;;4989623;28;20038;-77
2023/01/03 09:03:18;;;;;;;8.18;2.05;;;9.30;85.60;;;;;;4980247;28;20027;-77
2023/01/03 09:05:44;;;;;;;9.50;2.33;;;9.40;85.50;;;;;;4980068;28;20102;-77
2023/01/03 09:08:10;;;;;;;11.15;1.77;;;9.50;85.40;;;;;;4962866;28;20027;-77
2023/01/03 09:10:36;;;;;;;6.88;2.15;;;9.50;85.10;;;;;;4983752;28;20049;-77
2023/01/03 09:13:03;;;;;;;4.47;2.40;;;9.50;85.30;;;;;;4982199;28;20026;-77
2023/01/03 09:15:29;;;;;;;6.60;2.30;;;9.50;85.10;;;;;;4945655;28;20038;-78
2023/01/03 09:17:54;;;;;;;5.28;2.33;;;9.60;85.10;;;;;;4959352;29;20039;-78
2023/01/03 09:20:20;;;;;;;6.70;1.92;;;9.60;85.00;;;;;;4973918;28;20027;-78
2023/01/03 09:22:49;;;;;;;9.18;1.73;;;9.70;85.20;;;;;;4979934;28;20019;-78
2023/01/03 09:25:15;;;;;;;5.85;1.75;;;9.70;85.20;;;;;;4979790;28;20034;-78
2023/01/03 09:27:45;;;;;;;9.25;2.00;;;9.90;84.90;;;;;;4979350;28;20105;-77
2023/01/03 09:30:13;;;;;;;2.88;1.15;;;10.00;84.90;;;;;;4979518;28;20110;-78
2023/01/03 09:32:39;;;;;;;5.32;1.42;;;10.10;84.50;;;;;;4978909;28;20059;-78
2023/01/03 09:35:05;;;;;;;4.00;1.50;;;10.20;84.30;;;;;;4959851;28;20094;-79
2023/01/03 09:37:30;;;;;;;8.73;1.65;;;10.30;84.20;;;;;;4960157;29;20035;-77
2023/01/03 09:39:57;;;;;;;3.05;1.15;;;10.40;83.90;;;;;;4958879;29;20029;-78
2023/01/03 09:45:20;;;;;;;5.38;1.60;;;10.60;83.70;;;;;;4979479;28;20053;-77
2023/01/03 09:47:46;;;;;;;4.88;1.85;;;10.60;83.60;;;;;;4978909;28;20029;-78
2023/01/03 09:50:19;;;;;;;12.98;1.85;;;10.60;83.50;;;;;;4958836;29;20457;-77
2023/01/03 10:04:44;;;;;;;2.78;1.02;;;10.70;83.70;;;;;;4958845;28;20042;-79
2023/01/03 10:07:44;;;;;;;7.18;1.80;;;10.70;83.60;;;;;;4927593;29;20041;-79
2023/01/03 10:10:38;;;;;;;7.03;1.85;;;10.70;83.50;;;;;;4943592;28;20059;-77
2023/01/03 10:13:30;;;;;;;4.40;1.15;;;10.80;83.50;;;;;;4959645;29;20093;-77
2023/01/03 10:16:15;;;;;;;4.30;1.75;;;10.80;83.40;;;;;;4942128;29;20031;-78
2023/01/03 10:18:57;;;;;;;2.90;1.90;;;10.90;83.40;;;;;;4971273;28;20033;-78
2023/01/03 10:21:41;;;;;;;9.05;1.50;;;10.90;83.40;;;;;;4978224;28;20034;-77
2023/01/03 10:24:29;;;;;;;3.85;1.33;;;10.90;83.40;;;;;;4978350;28;20034;-78
2023/01/03 10:27:06;;;;;;;8.75;1.42;;;11.00;83.40;;;;;;4959349;29;20102;-77
2023/01/03 10:29:31;;;;;;;7.13;1.85;;;11.00;83.20;;;;;;4957681;29;20035;-77
2023/01/03 10:32:34;;;;;;;10.00;2.45;;;11.10;83.20;;;;;;4971831;28;20046;-78
2023/01/03 10:35:14;;;;;;;6.50;1.55;;;11.20;83.40;;;;;;4967927;28;20039;-77
2023/01/03 10:37:40;;;;;;;8.60;1.50;;;11.30;83.20;;;;;;4961060;28;20386;-78
2023/01/03 10:40:06;;;;;;;2.15;0.95;;;11.40;83.00;;;;;;4978660;28;20719;-78
2023/01/03 10:42:34;;;;;;;4.00;1.30;;;11.50;82.70;;;;;;4960311;28;20031;-77
2023/01/03 10:45:16;;;;;;;7.45;1.13;;;11.50;82.70;;;;;;4960906;28;20066;-78
2023/01/03 10:47:42;;;;;;;4.05;1.45;;;11.60;82.70;;;;;;4978403;28;20034;-78
2023/01/03 10:50:22;;;;;;;9.88;1.75;;;11.70;82.50;;;;;;4977709;28;20030;-77
2023/01/03 10:53:04;;;;;;;5.20;1.75;;;11.70;82.30;;;;;;4978363;28;20412;-77
2023/01/03 10:55:33;;;;;;;3.80;1.38;;;11.80;82.10;;;;;;4967189;28;20046;-77
2023/01/03 10:58:14;;;;;;;7.72;1.55;;;11.90;82.20;;;;;;4977471;28;20031;-77
2023/01/03 11:00:41;;;;;;;5.20;1.00;;;12.10;81.80;;;;;;4977741;28;20408;-77
2023/01/03 11:03:15;;;;;;;3.83;1.15;;;12.10;80.90;;;;;;4978192;28;20038;-78
2023/01/03 11:05:45;;;;;;;5.20;1.40;;;12.20;81.10;;;;;;4977350;28;20025;-78
2023/01/03 11:08:19;;;;;;;3.10;1.13;;;12.30;80.60;;;;;;4960417;28;20092;-78
2023/01/03 11:10:58;;;;;;;4.13;1.38;;;12.30;80.50;;;;;;4982948;28;20405;-78
2023/01/03 11:13:24;;;;;;;10.88;1.60;;;12.30;80.40;;;;;;4997228;28;20572;-78
2023/01/03 11:15:55;;;;;;;7.60;1.50;;;12.40;80.40;;;;;;4963576;28;20093;-77
2023/01/03 11:18:20;;;;;;;5.85;1.20;;;12.50;80.00;;;;;;4956384;29;20059;-77
2023/01/03 11:20:53;;;;;;;4.65;1.05;;;12.50;79.30;;;;;;4956868;29;20766;-78
2023/01/03 11:23:40;;;;;;;7.93;1.83;;;12.60;79.40;;;;;;4958679;28;20027;-77
2023/01/03 11:26:18;;;;;;;5.90;1.35;;;12.60;79.30;;;;;;4972377;28;20089;-78
2023/01/03 11:28:49;;;;;;;8.02;1.35;;;12.70;79.40;;;;;;4977079;28;20058;-77
2023/01/03 11:31:29;;;;;;;10.57;1.65;;;12.70;79.20;;;;;;4977204;28;20061;-78
2023/01/03 11:34:06;;;;;;;3.40;1.00;;;12.70;79.10;;;;;;4977649;28;20035;-78
2023/01/03 11:36:46;;;;;;;9.50;1.33;;;12.60;79.10;;;;;;4976733;28;20097;-77
2023/01/03 11:39:24;;;;;;;9.10;1.77;;;12.60;79.40;;;;;;4977326;28;20059;-79
2023/01/03 11:41:58;;;;;;;5.97;1.50;;;12.60;79.40;;;;;;4977264;28;20026;-78
2023/01/03 11:44:59;;;;;;;3.88;1.60;;;12.60;79.40;;;;;;4955578;29;20042;-78
2023/01/03 11:47:44;;;;;;;6.30;1.50;;;12.70;79.20;;;;;;4908951;29;20070;-77
2023/01/03 11:50:09;;;;;;;5.28;1.00;;;12.70;79.30;;;;;;4957797;29;20066;-77
2023/01/03 11:52:43;;;;;;;6.50;1.10;;;12.80;79.30;;;;;;4969905;28;20042;-77
2023/01/03 11:55:27;;;;;;;5.13;1.00;;;12.80;79.20;;;;;;4984974;28;20027;-77
2023/01/03 11:58:14;;;;;;;3.70;1.30;;;12.80;79.20;;;;;;4959454;28;20063;-77
2023/01/03 12:00:52;;;;;;;8.95;1.42;;;12.80;79.10;;;;;;4976838;28;20094;-77
2023/01/03 12:03:51;;;;;;;10.57;1.80;;;12.80;79.40;;;;;;4957854;29;20031;-78
2023/01/03 12:06:24;;;;;;;4.53;1.33;;;12.80;79.30;;;;;;4940401;29;20034;-78
2023/01/03 12:09:17;;;;;;;6.57;1.33;;;12.70;79.60;;;;;;4958127;28;20036;-78
2023/01/03 12:12:11;;;;;;;5.70;1.20;;;12.70;79.50;;;;;;4982277;28;20496;-78
2023/01/03 12:14:49;;;;;;;2.70;1.13;;;12.70;79.80;;;;;;4976376;28;20029;-77
2023/01/03 12:17:47;;;;;;;9.38;1.40;;;12.70;79.60;;;;;;4959104;28;20380;-78
2023/01/03 12:20:25;;;;;;;3.90;1.52;;;12.70;79.50;;;;;;4971336;28;20462;-78
2023/01/03 12:23:02;;;;;;;4.65;1.00;;;12.80;79.30;;;;;;4976716;28;20078;-77
2023/01/03 12:25:33;;;;;;;2.25;1.10;;;12.70;79.20;;;;;;4976840;28;20054;-78
2023/01/03 12:28:08;;;;;;;2.60;1.00;;;12.70;78.70;;;;;;4980902;28;20042;-78
2023/01/03 12:30:57;;;;;;;3.70;1.58;;;12.70;78.70;;;;;;4982468;28;20101;-77
2023/01/03 12:33:31;;;;;;;5.72;1.00;;;12.70;78.40;;;;;;4974889;28;20026;-77
2023/01/03 12:36:04;;;;;;;4.88;1.27;;;12.70;77.80;;;;;;4976997;28;20910;-77
2023/01/03 12:38:36;;;;;;;3.65;2.10;;;12.70;77.60;;;;;;4946398;28;20118;-76
2023/01/03 12:41:24;;;;;;;8.45;1.27;;;12.70;77.40;;;;;;4964272;28;20035;-77
2023/01/03 12:44:23;;;;;;;3.85;1.08;;;12.60;76.70;;;;;;4962509;29;20071;-77
2023/01/03 12:46:52;;;;;;;2.35;0.77;;;12.70;76.80;;;;;;4963049;28;20047;-77
2023/01/03 12:49:40;;;;;;;5.63;1.70;;;12.70;76.60;;;;;;4964245;28;20073;-77
2023/01/03 12:52:12;;;;;;;6.97;1.42;;;12.60;76.60;;;;;;4982377;28;20050;-77
2023/01/03 12:54:59;;;;;;;3.10;1.00;;;12.60;76.80;;;;;;4972977;28;20022;-78
2023/01/03 12:57:54;;;;;;;1.33;0.80;;;12.60;76.40;;;;;;4982283;28;20042;-78
2023/01/03 13:01:05;;;;;;;10.73;1.60;;;12.60;76.70;;;;;;4965345;28;20023;-78
2023/01/03 13:03:53;;;;;;;1.55;0.90;;;12.60;76.50;;;;;;4959540;28;20058;-78
2023/01/03 13:06:31;;;;;;;4.78;1.30;;;12.70;76.20;;;;;;4982966;28;20030;-78
2023/01/03 13:09:04;;;;;;;2.50;1.10;;;12.70;76.30;;;;;;4965172;28;20420;-78
2023/01/03 13:11:52;;;;;;;6.78;1.60;;;12.70;76.20;;;;;;4976068;28;20056;-78
2023/01/03 13:14:26;;;;;;;3.05;1.33;;;12.70;76.10;;;;;;5002258;28;20787;-78
2023/01/03 13:16:53;;;;;;;6.75;1.20;;;12.70;75.90;;;;;;4951971;28;20035;-78
2023/01/03 13:19:19;;;;;;;5.65;1.15;;;12.70;75.80;;;;;;4947330;28;20023;-78
2023/01/03 13:21:53;;;;;;;7.22;1.20;;;12.70;75.70;;;;;;4982679;28;20041;-77
2023/01/03 13:24:45;;;;;;;4.15;1.10;;;12.80;75.40;;;;;;4965049;28;20343;-77
2023/01/03 13:27:20;;;;;;;4.13;0.90;;;12.80;75.50;;;;;;4976739;28;20034;-78
2023/01/03 13:29:48;;;;;;;3.63;1.33;;;12.90;75.40;;;;;;4945938;29;20110;-78
2023/01/03 13:32:20;;;;;;;6.43;1.23;;;12.90;75.20;;;;;;4962901;29;20085;-78
2023/01/03 13:35:15;;;;;;;7.20;1.20;;;12.90;74.70;;;;;;4972504;28;20034;-77
2023/01/03 13:37:45;;;;;;;2.20;0.68;;;13.00;74.40;;;;;;4956795;28;20049;-77
2023/01/03 13:40:32;;;;;;;;;;;13.00;74.60;;;;;;4958277;28;20031;-77
2023/01/03 13:43:22;;;;;;;4.68;1.45;;;13.00;74.60;;;;;;4960004;29;19922;-78
2023/01/03 13:45:53;;;;;;;6.55;1.10;;;13.00;74.50;;;;;;4952687;29;20549;-78
2023/01/03 13:48:27;;;;;;;4.32;1.15;;;13.10;74.50;;;;;;4972900;28;20046;-77
2023/01/03 13:51:06;;;;;;;7.70;1.10;;;13.10;74.60;;;;;;4979390;28;20477;-78
2023/01/03 13:53:37;;;;;;;3.70;1.25;;;13.10;74.60;;;;;;4980568;28;20081;-78
2023/01/03 13:56:15;;;;;;;3.03;2.00;;;13.10;74.70;;;;;;4980911;28;20031;-78
2023/01/03 13:59:00;;;;;;;2.00;1.10;;;13.10;74.60;;;;;;4942672;29;20094;-78
2023/01/03 14:01:51;;;;;;;7.10;1.50;;;13.10;74.50;;;;;;4960032;28;20027;-78
2023/01/03 14:04:23;;;;;;;9.07;2.03;;;13.10;74.70;;;;;;4959739;29;20019;-78
2023/01/03 14:06:52;;;;;;;3.53;1.10;;;13.00;74.90;;;;;;4942759;29;20023;-78
2023/01/03 14:09:39;;;;;;;4.35;0.73;;;13.00;74.60;;;;;;4951950;28;20038;-78
2023/01/03 14:12:22;;;;;;;4.85;1.30;;;13.00;74.30;;;;;;4961540;28;20036;-77
2023/01/03 14:14:53;;;;;;;6.30;1.30;;;13.00;74.50;;;;;;4963197;28;20030;-78
2023/01/03 14:17:26;;;;;;;4.22;1.02;;;13.00;74.10;;;;;;4978560;28;20030;-78
2023/01/03 14:19:55;;;;;;;7.00;1.40;;;13.00;74.30;;;;;;4973544;28;20023;-78
2023/01/03 14:22:42;;;;;;;3.15;1.05;;;13.00;74.40;;;;;;4944877;28;20059;-78
2023/01/03 14:25:36;;;;;;;2.75;0.70;;;13.00;74.10;;;;;;4961299;28;20123;-78
2023/01/03 14:28:15;;;;;;;4.88;1.67;;;13.00;74.00;;;;;;4978614;28;20027;-78
2023/01/03 14:30:42;;;;;;;7.35;1.90;;;13.00;74.10;;;;;;4963872;28;20047;-78
2023/01/03 14:33:20;;;;;;;5.72;1.33;;;13.10;74.10;;;;;;4941915;29;20031;-77
2023/01/03 14:35:46;;;;;;;3.53;1.00;;;13.10;74.00;;;;;;4973459;28;20452;-78
2023/01/03 14:38:27;;;;;;;1.58;0.75;;;13.10;74.20;;;;;;4970431;28;20070;-78
2023/01/03 14:40:56;;;;;;;2.53;1.35;;;13.10;73.90;;;;;;4961055;28;20543;-78
2023/01/03 14:43:25;;;;;;;3.92;1.10;;;13.10;74.00;;;;;;4977914;28;20482;-78
2023/01/03 14:45:54;;;;;;;4.20;1.10;;;13.10;74.00;;;;;;4978091;28;20046;-77
2023/01/03 14:48:21;;;;;;;6.07;1.23;;;13.10;73.90;;;;;;4975647;28;20093;-77
2023/01/03 14:50:47;;;;;;;3.70;1.40;;;13.10;74.10;;;;;;4978007;28;20026;-77
2023/01/03 14:53:13;;;;;;;4.72;1.05;;;13.10;74.20;;;;;;4977598;28;20062;-77
2023/01/03 14:55:39;;;;;;;6.30;1.30;;;13.10;74.20;;;;;;4996376;28;20034;-77
2023/01/03 14:58:51;;;;;;;2.80;0.93;;;13.00;74.40;;;;;;4997327;28;20062;-78
2023/01/03 15:01:17;;;;;;;2.53;0.90;;;13.00;74.40;;;;;;4928977;29;20043;-77
2023/01/03 15:03:46;;;;;;;7.38;2.13;;;13.00;74.30;;;;;;4958614;29;20020;-77
2023/01/03 15:06:22;;;;;;;6.00;1.50;;;13.00;74.50;;;;;;4958691;29;20761;-77
2023/01/03 15:08:51;;;;;;;3.83;1.02;;;13.00;74.70;;;;;;4950657;28;20035;-77
2023/01/03 15:11:55;;;;;;;3.03;1.20;;;12.90;74.60;;;;;;4987259;28;20022;-77
2023/01/03 15:14:26;;;;;;;2.42;1.10;;;12.90;74.80;;;;;;4997223;28;20031;-77
2023/01/03 15:17:09;;;;;;;4.70;1.40;;;12.90;74.90;;;;;;4959763;28;20024;-77
2023/01/03 15:19:37;;;;;;;7.53;1.17;;;12.90;74.90;;;;;;4958222;29;20089;-78
2023/01/03 15:22:33;;;;;;;3.65;1.48;;;12.90;75.10;;;;;;4958413;29;20037;-77
2023/01/03 15:25:04;;;;;;;6.55;1.30;;;12.90;74.90;;;;;;4957826;28;20043;-77
2023/01/03 15:27:50;;;;;;;4.25;1.10;;;12.90;74.90;;;;;;4958329;29;20031;-77
2023/01/03 15:30:17;;;;;;;2.53;0.80;;;12.90;74.80;;;;;;4957428;28;20074;-77
2023/01/03 15:33:18;;;;;;;7.38;1.17;;;12.90;74.80;;;;;;4946348;29;20027;-77
2023/01/03 15:35:47;;;;;;;5.45;1.13;;;12.80;74.90;;;;;;4964141;28;20085;-78
2023/01/03 15:38:36;;;;;;;9.23;1.40;;;12.90;75.00;;;;;;4977260;28;20468;-77
2023/01/03 15:41:13;;;;;;;4.43;1.05;;;12.90;75.20;;;;;;4959459;28;20042;-77
2023/01/03 15:43:40;;;;;;;2.60;1.00;;;12.90;75.40;;;;;;4961693;28;20053;-78
2023/01/03 15:46:18;;;;;;;6.65;1.45;;;12.90;75.50;;;;;;4957835;29;20039;-78
2023/01/03 15:48:54;;;;;;;7.07;1.38;;;12.80;75.80;;;;;;4957950;29;20027;-78
2023/01/03 15:51:20;;;;;;;3.20;0.90;;;12.80;75.80;;;;;;4961796;28;20502;-79
2023/01/03 15:53:45;;;;;;;4.18;1.20;;;12.80;75.80;;;;;;4946479;28;20085;-78
2023/01/03 15:56:29;;;;;;;7.55;1.30;;;12.80;76.00;;;;;;4988592;28;20050;-78
2023/01/03 15:58:56;;;;;;;4.30;1.30;;;12.80;76.00;;;;;;4976916;28;20054;-78
2023/01/03 16:01:23;;;;;;;9.82;1.88;;;12.80;76.20;;;;;;4976425;28;20478;-78
2023/01/03 16:03:49;;;;;;;13.20;1.60;;;12.80;76.30;;;;;;4976809;28;20058;-78
2023/01/03 16:06:15;;;;;;;2.83;1.10;;;12.80;76.30;;;;;;4976555;28;20038;-78
2023/01/03 16:08:41;;;;;;;4.00;1.23;;;12.80;76.40;;;;;;4977222;28;20022;-78
2023/01/03 16:11:22;;;;;;;9.68;1.75;;;12.80;76.70;;;;;;4965025;28;20034;-78
2023/01/03 16:14:10;;;;;;;3.30;1.42;;;12.80;76.60;;;;;;4958887;28;20034;-78
2023/01/03 16:16:42;;;;;;;2.13;0.85;;;12.80;76.50;;;;;;4969481;28;20505;-78
2023/01/03 16:19:18;;;;;;;5.15;1.58;;;12.80;76.30;;;;;;4976769;28;20105;-78
2023/01/03 16:21:45;;;;;;;5.63;1.15;;;12.70;76.50;;;;;;4976371;28;20027;-78
2023/01/03 16:24:15;;;;;;;5.70;1.30;;;12.80;76.60;;;;;;4959490;28;20042;-78
2023/01/03 16:26:41;;;;;;;5.75;1.55;;;12.70;76.80;;;;;;4976488;28;20053;-78
2023/01/03 16:29:06;;;;;;;10.95;1.73;;;12.70;77.00;;;;;;4976413;28;20035;-78
2023/01/03 16:31:34;;;;;;;13.48;2.13;;;12.70;77.30;;;;;;4976129;28;20050;-78
2023/01/03 16:34:01;;;;;;;10.73;2.55;;;12.70;77.70;;;;;;4959339;28;20041;-78
2023/01/03 16:36:41;;;;;;;7.18;1.67;;;12.70;77.80;;;;;;4976583;28;20030;-78
2023/01/03 16:39:21;;;;;;;6.38;1.65;;;12.70;78.10;;;;;;4968389;28;20031;-78
2023/01/03 16:44:33;;;;;;;8.13;1.88;;;12.70;78.30;;;;;;4976437;28;20038;-76
2023/01/03 16:47:00;;;;;;;6.60;1.70;;;12.60;78.70;;;;;;4968895;28;20023;-76
2023/01/03 16:49:32;;;;;;;4.15;1.40;;;12.60;79.00;;;;;;4956877;28;20126;-75
2023/01/03 16:51:58;;;;;;;5.38;1.20;;;12.50;79.30;;;;;;4966532;28;20560;-75
2023/01/03 16:54:23;;;;;;;6.55;1.95;;;12.50;79.90;;;;;;4977513;28;20035;-75
2023/01/03 16:56:49;;;;;;;5.63;1.42;;;12.40;80.60;;;;;;4976498;28;20065;-75
2023/01/03 16:59:20;;;;;;;10.35;1.75;;;12.30;80.90;;;;;;4975409;28;20050;-75
2023/01/03 17:01:46;;;;;;;4.13;1.33;;;12.30;81.30;;;;;;4974430;28;20493;-75
2023/01/03 17:04:12;;;;;;;5.70;2.28;;;12.30;81.60;;;;;;4970824;28;20564;-75
2023/01/03 17:06:39;;;;;;;8.07;1.98;;;12.30;81.90;;;;;;4975452;28;20069;-76
2023/01/03 17:09:16;;;;;;;7.63;1.80;;;12.30;82.00;;;;;;4971656;28;20042;-75
2023/01/03 17:11:43;;;;;;;15.23;2.78;;;12.30;82.00;;;;;;4973429;28;20393;-75
2023/01/03 17:14:20;;;;;;;11.90;2.85;;;12.30;81.90;;;;;;4975564;28;20035;-75
2023/01/03 17:16:46;;;;;;;6.35;2.15;;;12.20;81.80;;;;;;4977991;28;20493;-75
2023/01/03 17:19:21;;;;;;;9.18;2.90;;;12.30;81.80;;;;;;4977617;28;20114;-75
2023/01/03 17:21:47;;;;;;;7.80;2.13;;;12.30;82.00;;;;;;4978151;28;20102;-75
2023/01/03 17:24:16;;;;;;;10.00;2.88;;;12.30;82.00;;;;;;4968665;28;20076;-76
2023/01/03 17:26:42;;;;;;;5.78;2.72;;;12.30;82.10;;;;;;4948906;28;20043;-75
2023/01/03 17:29:15;;;;;;;6.40;1.85;;;12.30;82.20;;;;;;4977236;28;20121;-76
2023/01/03 17:31:41;;;;;;;8.65;1.95;;;12.30;82.40;;;;;;4975289;28;20051;-75
2023/01/03 17:34:22;;;;;;;14.65;2.03;;;12.30;82.40;;;;;;4977437;28;20049;-75
2023/01/03 17:36:47;;;;;;;5.47;1.65;;;12.30;82.50;;;;;;4976468;28;20243;-75
2023/01/03 17:39:13;;;;;;;5.22;1.90;;;12.30;82.70;;;;;;4977261;28;20035;-75
2023/01/03 17:44:23;;;;;;;14.55;2.17;;;12.30;83.10;;;;;;4975069;28;20050;-75
2023/01/03 17:49:33;;;;;;;9.02;1.70;;;12.30;83.50;;;;;;4975231;28;20037;-75
2023/01/03 17:52:07;;;;;;;12.52;2.00;;;12.20;83.90;;;;;;4958103;28;20038;-76
2023/01/03 17:54:37;;;;;;;9.85;2.42;;;12.20;83.90;;;;;;4975897;28;20039;-77
2023/01/03 17:57:03;;;;;;;12.40;2.08;;;12.20;84.10;;;;;;4957933;28;20101;-75
2023/01/03 17:59:30;;;;;;;9.45;1.73;;;12.20;84.00;;;;;;4975513;28;20098;-76
2023/01/03 18:02:05;;;;;;;4.28;1.50;;;12.30;84.00;;;;;;4972832;28;20086;-76
2023/01/03 18:04:32;;;;;;;5.75;1.65;;;12.20;84.20;;;;;;4957328;28;20081;-75
2023/01/03 18:06:59;;;;;;;6.47;1.45;;;12.30;84.10;;;;;;4959825;28;20023;-76
2023/01/03 18:09:30;;;;;;;12.30;1.98;;;12.30;84.20;;;;;;4959841;28;20129;-76
2023/01/03 18:11:55;;;;;;;3.92;1.65;;;12.30;84.30;;;;;;4974258;28;20090;-76
2023/01/03 18:14:21;;;;;;;9.43;1.83;;;12.30;84.70;;;;;;4977463;28;20086;-75
2023/01/03 18:16:47;;;;;;;5.45;1.48;;;12.30;84.90;;;;;;4955229;28;20038;-75
2023/01/03 18:19:13;;;;;;;8.00;1.50;;;12.30;85.00;;;;;;4974024;28;20031;-75
2023/01/03 18:21:39;;;;;;;12.98;2.63;;;12.30;85.10;;;;;;4958555;28;20147;-76
2023/01/03 18:24:18;;;;;;;8.60;2.00;;;12.20;85.30;;;;;;4976369;28;20526;-76
2023/01/03 18:26:50;;;;;;;4.88;2.10;;;12.20;85.60;;;;;;4956152;28;20027;-78
2023/01/03 18:29:17;;;;;;;5.30;1.90;;;12.20;85.60;;;;;;4974744;28;20043;-75
2023/01/03 18:31:44;;;;;;;5.68;1.85;;;12.20;85.70;;;;;;4976530;28;20049;-78
2023/01/03 18:34:10;;;;;;;9.15;2.20;;;12.30;85.70;;;;;;4975502;28;20062;-76
2023/01/03 18:36:45;;;;;;;3.17;1.45;;;12.30;85.80;;;;;;4976135;28;20031;-79
2023/01/03 18:39:23;;;;;;;10.35;1.92;;;12.20;86.30;;;;;;4976559;28;20038;-78
2023/01/03 18:44:44;;;;;;;8.40;2.08;;;12.20;86.60;;;;;;4933585;28;20035;-76
2023/01/03 18:47:13;;;;;;;7.95;2.30;;;12.20;86.70;;;;;;4959022;28;20026;-76
2023/01/03 18:49:39;;;;;;;2.50;1.13;;;12.20;86.80;;;;;;4976872;28;20110;-78
2023/01/03 18:52:05;;;;;;;5.60;2.17;;;12.20;86.90;;;;;;4976601;28;20060;-77
2023/01/03 18:54:37;;;;;;;5.10;2.30;;;12.20;87.00;;;;;;4959791;28;20432;-77
2023/01/03 18:57:03;;;;;;;8.80;1.75;;;12.20;87.10;;;;;;4958795;28;20158;-77
2023/01/03 18:59:28;;;;;;;7.65;2.30;;;12.20;87.10;;;;;;4959805;28;20110;-77
2023/01/03 19:01:54;;;;;;;10.23;1.63;;;12.20;87.10;;;;;;4959661;28;20031;-77
2023/01/03 19:04:20;;;;;;;12.88;2.03;;;12.20;87.30;;;;;;4959420;28;20030;-76
2023/01/03 19:06:49;;;;;;;9.93;2.40;;;12.30;87.20;;;;;;4976549;28;20046;-77
2023/01/03 19:09:25;;;;;;;8.15;2.00;;;12.30;87.20;;;;;;4959846;28;20101;-80
2023/01/03 19:11:53;;;;;;;6.15;1.98;;;12.30;87.20;;;;;;4980371;28;20042;-76
2023/01/03 19:14:19;;;;;;;5.07;1.38;;;12.30;87.20;;;;;;4959748;28;20469;-76
2023/01/03 19:16:45;;;;;;;8.52;2.28;;;12.30;87.20;;;;;;4976590;28;20047;-77
2023/01/03 19:19:11;;;;;;;10.23;1.98;;;12.30;87.30;;;;;;4976808;28;20031;-76
2023/01/03 19:21:50;;;;;;;4.30;1.30;;;12.30;87.30;;;;;;4955354;29;20027;-76
2023/01/03 19:24:23;;;;;;;4.65;2.05;;;12.30;87.30;;;;;;4967658;28;20033;-76